Time;durP1;ratioP1;P1;durP2;ratioP2;P2;SDS_P1;SDS_P2;PMS_P1;PMS_P2;Temp;Humidity;BMP_temperature;BMP_pressure;BME280_temperature;BME280_humidity;BME280_pressure;Samples;Min_cycle;Max_cycle;Signal;HPM_P1;HPM_P2
2023/01/04 00:01:11;;;;;;;31.50;4.33;;;;;;;22.84;60.37;100550.28;7312487;19;132214;-65
2023/01/04 00:03:37;;;;;;;22.23;3.08;;;;;;;22.97;60.21;100561.44;7316863;19;129684;-64
2023/01/04 00:06:04;;;;;;;25.00;3.30;;;;;;;22.98;59.83;100561.31;7314008;19;129420;-66
2023/01/04 00:08:30;;;;;;;52.20;5.10;;;;;;;22.97;58.98;100570.13;7313289;19;129677;-63
2023/01/04 00:11:07;;;;;;;31.73;4.20;;;;;;;23.00;60.42;100567.28;7313584;19;131742;-66
2023/01/04 00:13:33;;;;;;;37.63;4.75;;;;;;;22.97;59.71;100566.69;7315135;19;129673;-65
2023/01/04 00:16:05;;;;;;;30.27;3.97;;;;;;;22.98;59.64;100557.84;7314308;19;129209;-64
2023/01/04 00:18:31;;;;;;;33.30;3.70;;;;;;;22.96;59.98;100550.13;7315386;19;128847;-66
2023/01/04 00:21:10;;;;;;;33.53;3.78;;;;;;;22.95;60.24;100558.09;7315327;19;129223;-66
2023/01/04 00:23:38;;;;;;;35.05;3.83;;;;;;;22.97;59.45;100546.53;7316535;19;130760;-66
2023/01/04 00:26:10;;;;;;;23.05;3.55;;;;;;;22.98;59.51;100542.13;7313826;19;130307;-63
2023/01/04 00:28:36;;;;;;;42.78;4.05;;;;;;;22.95;58.53;100537.97;7314995;19;129498;-63
2023/01/04 00:31:03;;;;;;;39.33;4.38;;;;;;;22.97;58.94;100543.09;7313157;19;129478;-63
2023/01/04 00:33:28;;;;;;;45.13;4.63;;;;;;;22.98;59.24;100547.38;7315359;19;130942;-65
2023/01/04 00:35:54;;;;;;;20.03;3.10;;;;;;;22.95;59.20;100542.38;7310253;19;129623;-65
2023/01/04 00:38:19;;;;;;;18.00;2.23;;;;;;;22.95;59.35;100537.97;7313915;19;129087;-65
2023/01/04 00:40:44;;;;;;;27.48;3.17;;;;;;;22.93;59.75;100529.41;7313369;19;129611;-66
2023/01/04 00:43:10;;;;;;;21.43;2.93;;;;;;;22.85;59.05;100520.47;7315198;19;129038;-65
2023/01/04 00:45:35;;;;;;;22.63;3.13;;;;;;;22.93;59.05;100533.78;7313120;19;129539;-63
2023/01/04 00:48:00;;;;;;;26.57;3.43;;;;;;;22.88;59.23;100510.56;7313615;19;129347;-65
2023/01/04 00:50:26;;;;;;;47.38;4.85;;;;;;;22.89;59.54;100514.84;7312931;19;129083;-65
2023/01/04 00:52:51;;;;;;;26.80;3.10;;;;;;;22.91;59.29;100522.59;7312753;19;133485;-66
2023/01/04 00:55:16;;;;;;;23.70;2.63;;;;;;;22.90;59.41;100523.56;7309266;19;129628;-64
2023/01/04 00:57:42;;;;;;;19.47;2.53;;;;;;;22.90;59.19;100521.78;7312685;19;129020;-65
2023/01/04 01:00:07;;;;;;;36.67;4.13;;;;;;;22.89;59.59;100516.66;7313651;19;129221;-65
2023/01/04 01:02:33;;;;;;;27.03;3.50;;;;;;;22.89;59.14;100521.91;7312509;19;129404;-64
2023/01/04 01:04:58;;;;;;;41.63;4.87;;;;;;;22.88;58.75;100520.22;7312444;19;128761;-63
2023/01/04 01:07:23;;;;;;;24.90;2.90;;;;;;;22.84;59.70;100513.59;7312956;19;129573;-63
2023/01/04 01:09:49;;;;;;;39.93;4.47;;;;;;;22.80;60.10;100506.91;7313341;19;129420;-65
2023/01/04 01:12:14;;;;;;;7.03;1.43;;;;;;;22.82;59.11;100505.00;7311180;19;129734;-63
2023/01/04 01:14:39;;;;;;;24.73;2.65;;;;;;;22.78;59.44;100491.31;7312826;19;129717;-66
2023/01/04 01:17:05;;;;;;;32.43;4.03;;;;;;;22.79;59.81;100485.09;7311090;19;130539;-66
2023/01/04 01:19:30;;;;;;;35.65;3.92;;;;;;;22.78;58.94;100474.75;7312418;19;129353;-66
2023/01/04 01:21:57;;;;;;;30.10;3.67;;;;;;;22.76;59.29;100490.59;7311312;19;129255;-66
2023/01/04 01:24:22;;;;;;;23.43;3.43;;;;;;;22.76;59.99;100490.59;7314247;19;128976;-66
2023/01/04 01:26:48;;;;;;;23.70;2.93;;;;;;;22.75;59.76;100493.34;7311517;19;129839;-66
2023/01/04 01:29:13;;;;;;;27.02;3.00;;;;;;;22.74;59.39;100486.44;7314187;19;129118;-64
2023/01/04 01:31:39;;;;;;;23.02;3.00;;;;;;;22.74;59.58;100481.22;7312576;19;129175;-65
2023/01/04 01:34:04;;;;;;;28.77;3.73;;;;;;;22.63;59.39;100460.25;7312605;19;129279;-68
2023/01/04 01:36:30;;;;;;;38.95;4.18;;;;;;;22.74;59.29;100491.69;7310883;19;129640;-65
2023/01/04 01:38:55;;;;;;;34.60;4.20;;;;;;;22.74;58.95;100491.69;7313014;19;129319;-65
2023/01/04 01:41:27;;;;;;;14.97;1.87;;;;;;;22.62;60.42;100466.47;7312181;19;129257;-66
2023/01/04 01:43:57;;;;;;;19.00;2.63;;;;;;;22.69;60.01;100478.13;7311489;19;129165;-64
2023/01/04 01:46:27;;;;;;;25.33;2.78;;;;;;;22.67;60.61;100473.00;7311083;19;129189;-63
2023/01/04 01:48:58;;;;;;;17.45;2.33;;;;;;;22.68;59.92;100466.81;7312500;19;129579;-63
2023/01/04 01:51:24;;;;;;;27.73;3.33;;;;;;;22.66;59.89;100463.47;7310861;19;129635;-65
2023/01/04 01:53:57;;;;;;;19.38;2.50;;;;;;;22.66;60.38;100463.47;7313634;19;129961;-66
2023/01/04 01:56:27;;;;;;;14.52;2.08;;;;;;;22.66;60.03;100452.97;7309317;19;129359;-66
2023/01/04 01:58:54;;;;;;;26.80;3.20;;;;;;;22.65;59.39;100456.56;7312924;19;130399;-66
2023/01/04 02:01:20;;;;;;;19.30;2.50;;;;;;;22.62;59.51;100450.75;7311790;19;129726;-66
2023/01/04 02:03:46;;;;;;;19.45;2.50;;;;;;;22.61;59.23;100446.47;7312503;19;129339;-65
2023/01/04 02:06:16;;;;;;;15.68;2.10;;;;;;;22.61;59.70;100446.47;7309932;19;129038;-65
2023/01/04 02:08:42;;;;;;;32.08;3.20;;;;;;;22.58;59.55;100450.16;7309905;19;129672;-65
2023/01/04 02:11:08;;;;;;;26.00;3.17;;;;;;;22.48;59.82;100428.25;7311841;19;129608;-67
2023/01/04 02:16:51;;;;;;;12.45;1.80;;;;;;;22.58;60.07;100442.31;7310482;19;129177;-66
2023/01/04 02:19:22;;;;;;;33.58;4.15;;;;;;;22.55;59.89;100442.56;7311586;19;129174;-66
2023/01/04 02:21:50;;;;;;;26.13;2.83;;;;;;;22.57;59.82;100439.81;7309149;19;129524;-63
2023/01/04 02:24:46;;;;;;;15.50;1.92;;;;;;;22.57;60.67;100438.03;7312462;19;129365;-65
2023/01/04 02:27:32;;;;;;;23.95;2.72;;;;;;;22.55;60.01;100433.84;7309395;19;128841;-66
2023/01/04 02:30:31;;;;;;;42.58;4.75;;;;;;;22.56;60.35;100425.06;7310993;19;129649;-65
2023/01/04 02:33:20;;;;;;;22.73;2.83;;;;;;;22.54;59.90;100413.84;7310504;19;129262;-65
2023/01/04 02:36:11;;;;;;;22.02;2.42;;;;;;;22.52;60.69;100403.47;7308135;19;129431;-63
2023/01/04 02:38:58;;;;;;;22.95;2.45;;;;;;;22.51;60.42;100406.22;7311318;19;129803;-65
2023/01/04 02:41:38;;;;;;;31.63;3.63;;;;;;;22.52;60.75;100397.38;7308662;19;129112;-66
2023/01/04 02:44:52;;;;;;;28.65;3.45;;;;;;;22.49;60.47;100402.88;7310405;19;128957;-63
2023/01/04 02:50:29;;;;;;;28.98;3.15;;;;;;;22.45;59.92;100385.75;7310620;19;129990;-66
2023/01/04 02:52:56;;;;;;;23.23;2.67;;;;;;;22.42;60.06;100375.53;7312094;19;129331;-66
2023/01/04 02:55:22;;;;;;;30.08;3.00;;;;;;;22.46;59.90;100376.94;7307453;19;129736;-65
2023/01/04 02:58:32;;;;;;;21.53;2.40;;;;;;;22.48;60.55;100377.63;7309102;19;129321;-66
2023/01/04 03:07:01;;;;;;;20.45;2.22;;;;;;;22.43;60.90;100359.66;7311754;19;129449;-66
2023/01/04 03:09:32;;;;;;;18.58;2.20;;;;;;;22.42;60.19;100359.78;7310886;19;128955;-66
2023/01/04 03:14:59;;;;;;;34.78;4.40;;;;;;;22.41;60.58;100342.44;7308424;19;129836;-63
2023/01/04 03:17:31;;;;;;;25.85;3.13;;;;;;;22.39;60.40;100344.34;7306501;19;129396;-65
2023/01/04 03:19:58;;;;;;;37.25;4.32;;;;;;;22.38;60.31;100345.31;7305645;19;128912;-66
2023/01/04 03:36:36;;;;;;;47.22;4.85;;;;;;;22.36;60.07;100307.91;7307535;19;129289;-65
2023/01/04 03:48:32;;;;;;;28.33;3.15;;;;;;;22.29;61.23;100276.16;7309239;19;129381;-66
2023/01/04 03:51:14;;;;;;;21.30;2.75;;;;;;;22.30;60.93;100275.19;7309306;19;129312;-66
2023/01/04 03:54:04;;;;;;;15.60;2.05;;;;;;;22.28;61.25;100273.66;7308966;19;129144;-64
2023/01/04 03:56:32;;;;;;;39.67;4.32;;;;;;;22.25;60.30;100260.81;7305814;19;129693;-64
2023/01/04 03:58:58;;;;;;;41.58;3.90;;;;;;;22.28;60.42;100263.19;7310138;19;129406;-63
2023/01/04 04:01:25;;;;;;;7.65;1.23;;;;;;;22.26;60.33;100247.59;7308957;19;129154;-65
2023/01/04 04:09:20;;;;;;;14.70;1.75;;;;;;;22.30;60.44;100240.28;7310098;19;129479;-64
2023/01/04 04:11:45;;;;;;;8.25;1.13;;;;;;;22.21;60.58;100226.22;7304660;19;129505;-64
2023/01/04 04:14:11;;;;;;;29.92;3.03;;;;;;;22.32;59.58;100239.22;7309638;19;129045;-65
2023/01/04 04:16:36;;;;;;;25.33;2.80;;;;;;;22.32;59.72;100239.22;7306446;19;129091;-66
2023/01/04 04:19:01;;;;;;;46.80;5.35;;;;;;;22.27;60.34;100230.91;7306583;19;132180;-63
2023/01/04 04:21:27;;;;;;;41.33;4.60;;;;;;;22.28;59.98;100231.75;7306287;19;129371;-66
2023/01/04 04:23:56;;;;;;;27.13;2.70;;;;;;;22.29;60.36;100226.38;7307898;19;129056;-66
2023/01/04 04:26:22;;;;;;;16.27;2.22;;;;;;;22.27;60.33;100216.97;7307161;19;129158;-65
2023/01/04 04:28:48;;;;;;;21.37;2.23;;;;;;;22.28;60.12;100205.56;7308474;19;129549;-65
2023/01/04 04:31:14;;;;;;;20.90;2.30;;;;;;;22.28;60.28;100198.50;7310640;19;129328;-65
2023/01/04 04:33:39;;;;;;;29.65;2.75;;;;;;;22.26;60.02;100207.47;7315226;19;129240;-65
2023/01/04 04:36:05;;;;;;;39.55;4.30;;;;;;;22.05;60.51;100204.84;7311145;19;129444;-66
2023/01/04 04:38:31;;;;;;;27.27;2.97;;;;;;;22.01;58.94;100202.63;7315451;19;130759;-63
2023/01/04 04:43:40;;;;;;;31.48;3.00;;;;;;;22.40;57.39;100187.00;7315223;19;129394;-64
2023/01/04 04:46:06;;;;;;;37.03;4.10;;;;;;;22.85;56.55;100205.84;7308846;19;131350;-67
2023/01/04 04:48:31;;;;;;;38.95;4.25;;;;;;;23.13;55.94;100194.59;7312651;19;129114;-66
2023/01/04 04:50:56;;;;;;;18.83;2.13;;;;;;;23.42;54.68;100187.63;7313354;19;129163;-66
2023/01/04 04:53:22;;;;;;;33.10;3.30;;;;;;;23.63;54.44;100190.97;7314421;19;129030;-66
2023/01/04 04:55:50;;;;;;;24.53;2.37;;;;;;;23.75;54.34;100181.97;7314529;19;128919;-65
2023/01/04 04:58:16;;;;;;;28.80;3.33;;;;;;;23.73;54.09;100162.94;7312187;19;130527;-66
2023/01/04 05:00:41;;;;;;;40.23;4.27;;;;;;;23.91;53.75;100166.50;7310790;19;130637;-64
2023/01/04 05:03:06;;;;;;;49.47;5.33;;;;;;;23.99;53.69;100169.28;7313439;19;129771;-66
2023/01/04 05:05:32;;;;;;;39.25;4.47;;;;;;;24.02;52.98;100163.72;7310254;19;129497;-66
2023/01/04 05:07:57;;;;;;;35.57;4.17;;;;;;;24.08;52.91;100159.72;7311698;19;129153;-64
2023/01/04 05:10:22;;;;;;;27.97;2.93;;;;;;;24.12;52.97;100155.81;7312090;19;129547;-66
2023/01/04 05:13:00;;;;;;;43.73;4.13;;;;;;;24.09;53.59;100156.94;7312899;19;129531;-67
2023/01/04 05:15:34;;;;;;;27.77;2.83;;;;;;;24.11;53.27;100155.00;7311395;19;129390;-63
2023/01/04 05:17:59;;;;;;;39.33;4.18;;;;;;;24.18;52.95;100140.31;7311317;19;130397;-65
2023/01/04 05:20:25;;;;;;;23.07;2.73;;;;;;;24.18;52.83;100137.69;7310652;19;129625;-64
2023/01/04 05:22:50;;;;;;;34.05;3.10;;;;;;;24.23;52.84;100139.88;7312505;19;129731;-66
2023/01/04 05:25:16;;;;;;;28.90;2.90;;;;;;;24.25;52.54;100136.16;7311228;19;130081;-66
2023/01/04 05:27:42;;;;;;;23.47;2.40;;;;;;;24.27;52.72;100136.00;7312992;19;130228;-65
2023/01/04 05:32:53;;;;;;;11.52;1.45;;;;;;;24.21;52.40;100099.81;7312784;19;128922;-65
2023/01/04 05:35:19;;;;;;;28.17;2.73;;;;;;;24.31;52.95;100101.41;7308469;19;129754;-66
2023/01/04 05:37:44;;;;;;;36.45;4.03;;;;;;;24.35;52.54;100102.78;7310297;19;129086;-63
2023/01/04 05:40:10;;;;;;;29.23;2.97;;;;;;;24.38;52.47;100091.97;7309137;19;131582;-66
2023/01/04 05:42:35;;;;;;;32.47;3.30;;;;;;;24.39;52.81;100098.06;7307124;19;129797;-65
2023/01/04 05:45:00;;;;;;;95.03;8.32;;;;;;;24.37;52.04;100089.50;7309081;19;129510;-65
2023/01/04 05:47:26;;;;;;;24.07;2.47;;;;;;;24.42;52.50;100093.34;7311860;19;129753;-65
2023/01/04 05:49:52;;;;;;;18.20;1.83;;;;;;;24.50;52.04;100092.59;7312324;19;129048;-65
2023/01/04 05:52:18;;;;;;;26.70;2.37;;;;;;;24.45;51.81;100090.44;7311945;19;129384;-64
2023/01/04 05:54:43;;;;;;;30.63;2.50;;;;;;;24.46;52.24;100078.94;7313278;19;129236;-63
2023/01/04 05:57:09;;;;;;;38.05;3.42;;;;;;;24.40;51.98;100069.00;7307879;19;131146;-65
2023/01/04 05:59:35;;;;;;;34.90;3.13;;;;;;;24.30;52.62;100073.47;7311550;19;129123;-63
2023/01/04 06:02:01;;;;;;;19.03;2.20;;;;;;;24.17;52.58;100078.25;7309263;19;129187;-63
2023/01/04 06:04:26;;;;;;;61.57;5.40;;;;;;;24.00;53.42;100063.22;7306296;19;129431;-64
2023/01/04 06:06:52;;;;;;;25.47;2.27;;;;;;;23.83;53.57;100063.94;7306257;19;130539;-64
2023/01/04 06:09:18;;;;;;;43.53;3.70;;;;;;;23.69;53.82;100051.28;7304714;19;131868;-65
2023/01/04 06:11:43;;;;;;;60.67;5.50;;;;;;;23.55;55.02;100040.41;7293932;19;129539;-63
2023/01/04 06:14:09;;;;;;;43.17;3.80;;;;;;;23.48;54.70;100036.69;7307062;19;129447;-66
2023/01/04 06:16:35;;;;;;;60.03;5.50;;;;;;;23.43;55.34;100029.22;7301788;19;130002;-63
2023/01/04 06:19:00;;;;;;;55.50;5.13;;;;;;;23.47;55.27;100027.97;7304404;19;130023;-66
2023/01/04 06:21:26;;;;;;;56.97;5.30;;;;;;;23.52;55.15;100031.00;7305170;19;129417;-64
2023/01/04 06:23:52;;;;;;;21.47;2.20;;;;;;;23.53;54.82;100023.97;7310150;19;129180;-65
2023/01/04 06:26:17;;;;;;;133.90;13.57;;;;;;;23.65;50.80;100023.63;7294269;19;129924;-66
2023/01/04 06:28:43;;;;;;;53.80;4.87;;;;;;;23.69;50.58;100025.03;7309773;19;129702;-67
2023/01/04 06:31:10;;;;;;;35.60;3.37;;;;;;;23.69;52.24;100014.53;7310402;19;129049;-65
2023/01/04 06:33:35;;;;;;;;;;;;;;;23.66;52.82;100014.81;7305377;19;129546;-67
2023/01/04 06:36:01;;;;;;;26.60;2.95;;;;;;;23.66;52.59;100012.19;7309034;19;129563;-67
2023/01/04 06:38:26;;;;;;;28.77;3.10;;;;;;;23.57;53.62;100018.28;7311144;19;129353;-67
2023/01/04 06:40:52;;;;;;;34.93;3.33;;;;;;;23.46;53.51;100013.19;7310635;19;129612;-67
2023/01/04 06:43:18;;;;;;;34.17;3.33;;;;;;;23.31;54.12;99984.91;7310708;19;129778;-65
2023/01/04 06:45:43;;;;;;;19.73;2.20;;;;;;;23.33;54.59;100002.19;7308306;19;129316;-65
2023/01/04 06:48:08;;;;;;;30.47;3.07;;;;;;;23.27;55.17;99996.66;7313530;19;129181;-64
2023/01/04 06:50:34;;;;;;;34.13;3.35;;;;;;;23.18;54.72;99999.13;7311777;19;129405;-65
2023/01/04 06:52:59;;;;;;;21.77;2.43;;;;;;;23.10;55.45;99990.31;7312916;19;128895;-68
2023/01/04 06:55:24;;;;;;;19.67;2.30;;;;;;;23.01;56.34;99988.50;7309597;19;130037;-67
2023/01/04 06:57:50;;;;;;;19.98;2.10;;;;;;;22.99;55.80;99993.09;7311517;19;129588;-65
2023/01/04 07:00:16;;;;;;;19.20;1.83;;;;;;;22.92;56.66;99981.50;7311199;19;129370;-65
2023/01/04 07:02:41;;;;;;;19.37;2.03;;;;;;;22.80;56.73;99966.84;7312761;19;129389;-68
2023/01/04 07:05:07;;;;;;;38.42;3.95;;;;;;;22.87;57.41;99978.44;7310389;19;129185;-65
2023/01/04 07:07:33;;;;;;;24.47;2.37;;;;;;;22.77;57.21;99975.84;7310912;19;129156;-65
2023/01/04 07:09:58;;;;;;;32.72;3.38;;;;;;;22.77;58.01;99975.84;7312371;19;129082;-65
2023/01/04 07:12:24;;;;;;;25.42;2.85;;;;;;;22.73;57.48;99965.75;7309192;19;130326;-67
2023/01/04 07:14:49;;;;;;;38.37;3.50;;;;;;;22.71;57.34;99967.69;7307982;19;133730;-66
2023/01/04 07:17:15;;;;;;;29.13;2.77;;;;;;;22.70;57.54;99963.41;7307031;19;129305;-66
2023/01/04 07:19:40;;;;;;;24.13;2.47;;;;;;;22.73;56.85;99947.41;7310003;19;129062;-65
2023/01/04 07:22:06;;;;;;;27.25;3.03;;;;;;;22.81;57.01;99948.38;7308469;19;129182;-68
2023/01/04 07:24:31;;;;;;;22.90;2.63;;;;;;;22.88;56.79;99954.72;7311864;19;129024;-66
2023/01/04 07:27:00;;;;;;;37.83;4.07;;;;;;;22.91;56.53;99953.59;7309328;19;130147;-65
2023/01/04 07:29:26;;;;;;;20.50;2.38;;;;;;;23.02;56.25;99953.47;7311331;19;129491;-66
2023/01/04 07:31:51;;;;;;;16.40;2.03;;;;;;;23.05;55.95;99950.56;7308553;19;129433;-65
2023/01/04 07:34:19;;;;;;;13.80;1.50;;;;;;;23.13;56.00;99954.13;7311946;19;129270;-65
2023/01/04 07:36:46;;;;;;;30.60;3.08;;;;;;;23.21;56.12;99950.78;7304308;19;134152;-65
2023/01/04 07:39:12;;;;;;;25.00;2.88;;;;;;;23.33;55.85;99946.25;7310499;19;128790;-67
2023/01/04 07:41:38;;;;;;;23.50;2.23;;;;;;;23.36;55.16;99938.09;7309984;19;129297;-66
2023/01/04 07:44:05;;;;;;;31.23;2.95;;;;;;;23.38;55.52;99939.59;7314113;19;129389;-65
2023/01/04 07:46:31;;;;;;;35.17;3.30;;;;;;;23.41;55.69;99941.94;7308978;19;129442;-66
2023/01/04 07:48:56;;;;;;;24.23;2.60;;;;;;;23.36;55.91;99927.59;7310707;19;128720;-65
2023/01/04 07:51:22;;;;;;;21.97;2.07;;;;;;;23.28;56.16;99936.19;7308904;19;129228;-67
2023/01/04 07:53:47;;;;;;;20.03;2.03;;;;;;;23.24;55.96;99940.00;7308980;19;132038;-64
2023/01/04 07:56:12;;;;;;;34.60;3.13;;;;;;;23.14;55.68;99945.28;7306059;19;129303;-67
2023/01/04 07:58:38;;;;;;;19.93;2.00;;;;;;;23.09;56.17;99946.66;7310512;19;129436;-65
2023/01/04 08:01:13;;;;;;;19.37;2.43;;;;;;;22.95;57.50;99934.00;7309036;19;129525;-66
2023/01/04 08:03:38;;;;;;;22.08;2.13;;;;;;;22.98;56.39;99949.47;7311276;19;130062;-67
2023/01/04 08:06:06;;;;;;;46.87;4.73;;;;;;;22.88;56.86;99951.25;7312876;19;130465;-65
2023/01/04 08:08:31;;;;;;;20.20;2.33;;;;;;;22.80;57.35;99951.13;7316553;19;129711;-67
2023/01/04 08:11:17;;;;;;;25.00;2.57;;;;;;;22.77;58.10;99946.16;7316098;19;129599;-67
2023/01/04 08:13:43;;;;;;;16.20;1.70;;;;;;;22.74;57.89;99943.84;7317042;19;129992;-67
2023/01/04 08:16:18;;;;;;;17.87;1.87;;;;;;;22.56;58.74;99911.41;7313343;19;129411;-68
2023/01/04 08:18:43;;;;;;;13.75;1.70;;;;;;;22.63;58.38;99925.59;7316214;19;130005;-67
2023/01/04 08:21:09;;;;;;;28.23;2.77;;;;;;;22.63;58.53;99915.13;7315654;19;130022;-67
2023/01/04 08:23:36;;;;;;;13.82;1.63;;;;;;;22.60;57.46;99916.25;7317442;19;129480;-67
2023/01/04 08:26:10;;;;;;;34.55;3.60;;;;;;;22.63;58.34;99902.00;7314931;19;129580;-65
2023/01/04 08:28:35;;;;;;;29.25;2.85;;;;;;;22.71;57.84;99896.94;7316338;19;129374;-65
2023/01/04 08:31:13;;;;;;;21.30;2.50;;;;;;;22.73;57.80;99882.72;7312830;19;128832;-67
2023/01/04 08:33:39;;;;;;;30.58;3.17;;;;;;;22.84;57.66;99879.91;7317189;19;129222;-67
2023/01/04 08:36:25;;;;;;;27.07;2.83;;;;;;;22.89;57.24;99861.97;7312704;19;129785;-65
2023/01/04 08:38:53;;;;;;;19.10;1.85;;;;;;;23.01;56.54;99854.75;7316779;19;128964;-66
2023/01/04 08:41:18;;;;;;;15.73;1.83;;;;;;;23.08;56.39;99842.75;7313986;19;131188;-66
2023/01/04 08:43:44;;;;;;;20.13;1.97;;;;;;;23.16;56.67;99832.34;7316109;19;129410;-71
2023/01/04 08:46:10;;;;;;;22.33;2.43;;;;;;;23.20;56.34;99831.13;7311179;19;130152;-67
2023/01/04 08:48:36;;;;;;;39.28;3.65;;;;;;;23.31;56.08;99836.19;7315327;19;129686;-67
2023/01/04 08:51:11;;;;;;;37.43;3.37;;;;;;;23.30;55.74;99824.06;7313848;19;129437;-67
2023/01/04 08:53:36;;;;;;;31.02;2.97;;;;;;;23.29;56.76;99825.03;7316615;19;129860;-67
2023/01/04 08:56:02;;;;;;;31.33;3.30;;;;;;;23.24;55.95;99824.59;7313402;19;130667;-67
2023/01/04 08:58:29;;;;;;;25.90;2.77;;;;;;;23.17;55.85;99823.53;7315725;19;129487;-65
2023/01/04 09:01:07;;;;;;;19.63;2.08;;;;;;;23.09;56.45;99826.03;7312854;19;129070;-64
2023/01/04 09:03:33;;;;;;;21.52;2.22;;;;;;;23.03;57.15;99821.38;7315109;19;129602;-66
2023/01/04 09:06:02;;;;;;;43.08;4.13;;;;;;;22.94;57.78;99827.47;7313317;19;129379;-67
2023/01/04 09:08:29;;;;;;;16.83;1.77;;;;;;;22.91;57.32;99827.75;7315393;19;129764;-68
2023/01/04 09:10:54;;;;;;;20.83;2.42;;;;;;;22.82;57.39;99829.44;7314111;19;129789;-64
2023/01/04 09:13:19;;;;;;;20.43;2.00;;;;;;;22.78;57.54;99832.47;7315209;19;129737;-68
2023/01/04 09:15:45;;;;;;;25.47;2.43;;;;;;;22.62;57.57;99811.28;7312779;19;129984;-67
2023/01/04 09:18:10;;;;;;;19.10;1.88;;;;;;;22.69;57.78;99823.66;7316036;19;129650;-66
2023/01/04 09:20:36;;;;;;;10.83;1.43;;;;;;;22.55;58.51;99810.16;7313993;19;129181;-65
2023/01/04 09:23:01;;;;;;;29.73;3.22;;;;;;;22.62;58.16;99816.50;7314755;19;129257;-67
2023/01/04 09:25:26;;;;;;;27.20;2.75;;;;;;;22.61;58.98;99817.50;7313794;19;129067;-67
2023/01/04 09:27:52;;;;;;;22.58;2.58;;;;;;;22.63;58.49;99818.16;7315026;19;129855;-67
2023/01/04 09:30:17;;;;;;;15.77;1.77;;;;;;;22.60;58.21;99807.97;7315549;19;129158;-66
2023/01/04 09:32:43;;;;;;;26.08;2.17;;;;;;;22.66;58.07;99807.41;7315168;19;129579;-65
2023/01/04 09:35:08;;;;;;;43.90;4.15;;;;;;;22.73;57.50;99798.00;7312175;19;132906;-68
2023/01/04 09:37:33;;;;;;;21.57;2.30;;;;;;;22.80;57.67;99793.84;7318875;19;129099;-67
2023/01/04 09:39:59;;;;;;;32.53;3.13;;;;;;;22.85;57.88;99796.88;7314337;19;128965;-67
2023/01/04 09:42:36;;;;;;;30.87;2.73;;;;;;;22.89;57.25;99782.50;7311974;19;129516;-65
2023/01/04 09:45:21;;;;;;;37.10;3.50;;;;;;;23.00;57.54;99763.97;7311767;19;132176;-66
2023/01/04 09:48:11;;;;;;;19.30;1.75;;;;;;;23.11;56.53;99755.91;7314751;19;128765;-64
2023/01/04 09:50:55;;;;;;;35.75;3.35;;;;;;;23.20;56.89;99747.97;7313449;19;128832;-65
2023/01/04 09:53:25;;;;;;;23.70;2.15;;;;;;;23.29;56.34;99759.44;7315062;19;129864;-67
2023/01/04 09:55:53;;;;;;;13.50;1.63;;;;;;;23.27;56.11;99758.75;7312039;19;130841;-66
2023/01/04 09:58:54;;;;;;;24.50;2.38;;;;;;;23.25;56.51;99765.94;7314703;19;129682;-66
2023/01/04 10:01:40;;;;;;;19.33;2.00;;;;;;;23.18;56.88;99772.72;7308596;19;129290;-65
2023/01/04 10:04:12;;;;;;;27.25;2.58;;;;;;;23.14;56.67;99745.13;7312953;19;129578;-64
2023/01/04 10:06:37;;;;;;;24.85;2.58;;;;;;;23.07;56.66;99751.94;7312408;19;129965;-67
2023/01/04 10:09:10;;;;;;;38.73;3.73;;;;;;;23.04;57.85;99744.34;7313669;19;129165;-66
2023/01/04 10:12:04;;;;;;;25.05;2.55;;;;;;;22.94;57.43;99727.84;7311556;19;129992;-68
2023/01/04 10:14:35;;;;;;;30.85;2.88;;;;;;;22.88;57.56;99707.44;7314336;19;129097;-66
2023/01/04 10:17:25;;;;;;;24.92;2.60;;;;;;;22.77;57.78;99684.88;7307535;19;131295;-66
2023/01/04 10:19:53;;;;;;;34.83;3.10;;;;;;;22.73;57.86;99696.59;7313017;19;129508;-67
2023/01/04 10:22:21;;;;;;;20.38;2.15;;;;;;;22.66;57.98;99692.09;7311222;19;130982;-65
2023/01/04 10:24:57;;;;;;;18.30;1.83;;;;;;;22.61;58.97;99694.31;7313451;19;129201;-68
2023/01/04 10:27:31;;;;;;;18.15;1.63;;;;;;;22.59;59.27;99696.25;7312993;19;129125;-67
2023/01/04 10:30:06;;;;;;;32.50;3.20;;;;;;;22.61;58.41;99703.00;7311639;19;129398;-67
2023/01/04 10:32:35;;;;;;;24.45;2.40;;;;;;;22.62;58.80;99706.44;7314423;19;128866;-65
2023/01/04 10:35:12;;;;;;;62.53;6.15;;;;;;;22.61;58.34;99694.31;7311961;19;129553;-67
2023/01/04 10:37:37;;;;;;;24.30;2.47;;;;;;;22.65;58.53;99700.91;7313382;19;129473;-65
2023/01/04 10:40:12;;;;;;;35.13;3.63;;;;;;;22.73;57.83;99696.59;7312765;19;129541;-66
2023/01/04 10:43:09;;;;;;;27.67;2.63;;;;;;;22.77;58.04;99692.75;7309371;19;129192;-65
2023/01/04 10:46:05;;;;;;;12.50;1.52;;;;;;;22.93;57.88;99684.22;7309800;19;129780;-67
2023/01/04 10:48:47;;;;;;;19.30;1.95;;;;;;;23.00;57.70;99680.06;7312275;19;129523;-64
2023/01/04 10:51:19;;;;;;;27.73;3.17;;;;;;;23.06;56.98;99663.72;7309477;19;129019;-66
2023/01/04 10:53:55;;;;;;;22.27;2.13;;;;;;;23.16;57.06;99649.59;7312291;19;129532;-67
2023/01/04 10:57:05;;;;;;;23.50;2.22;;;;;;;23.26;56.85;99644.28;7309501;19;129724;-65
2023/01/04 10:59:48;;;;;;;23.58;2.53;;;;;;;23.31;56.82;99656.97;7308409;19;129220;-68
2023/01/04 11:02:20;;;;;;;15.90;1.60;;;;;;;23.32;56.33;99656.81;7307864;19;129198;-64
2023/01/04 11:04:55;;;;;;;27.92;2.42;;;;;;;23.28;56.11;99637.13;7312106;19;129330;-66
2023/01/04 11:07:42;;;;;;;21.95;2.22;;;;;;;23.19;56.85;99637.97;7311383;19;130274;-67
2023/01/04 11:10:22;;;;;;;34.83;3.77;;;;;;;23.10;56.82;99623.13;7311203;19;129098;-65
2023/01/04 11:12:47;;;;;;;15.68;1.55;;;;;;;23.04;57.52;99616.69;7314092;19;129365;-65
2023/01/04 11:15:13;;;;;;;39.13;3.87;;;;;;;22.98;57.04;99624.31;7309322;19;129239;-65
2023/01/04 11:17:41;;;;;;;14.52;1.45;;;;;;;22.79;57.84;99593.78;7312977;19;129983;-65
2023/01/04 11:20:07;;;;;;;43.50;4.43;;;;;;;22.82;57.71;99608.41;7309769;19;129109;-65
2023/01/04 11:22:41;;;;;;;18.30;1.90;;;;;;;22.76;57.91;99603.75;7309401;19;129043;-68
2023/01/04 11:25:11;;;;;;;28.52;2.75;;;;;;;22.67;58.16;99604.63;7308803;19;128955;-66
2023/01/04 11:28:00;;;;;;;15.80;1.35;;;;;;;22.53;59.22;99602.50;7310464;19;132008;-67
2023/01/04 11:30:41;;;;;;;23.50;2.03;;;;;;;22.62;59.42;99609.50;7309376;19;132005;-65
2023/01/04 11:33:21;;;;;;;38.15;3.47;;;;;;;22.60;60.60;99598.31;7310940;19;129195;-65
2023/01/04 11:35:57;;;;;;;22.25;2.47;;;;;;;22.60;59.15;99609.63;7307521;19;129159;-66
2023/01/04 11:38:26;;;;;;;26.25;2.28;;;;;;;22.67;58.74;99607.25;7311512;19;129539;-66
2023/01/04 11:41:05;;;;;;;24.88;2.08;;;;;;;22.63;58.58;99608.50;7306755;19;129762;-65
2023/01/04 11:43:36;;;;;;;31.67;2.95;;;;;;;22.66;58.45;99603.00;7311981;19;129343;-68
2023/01/04 11:46:05;;;;;;;18.73;1.90;;;;;;;22.71;58.54;99595.53;7309675;19;129090;-67
2023/01/04 11:48:37;;;;;;;30.08;2.70;;;;;;;22.82;58.11;99587.44;7310366;19;129040;-67
2023/01/04 11:51:04;;;;;;;26.92;2.72;;;;;;;22.91;57.82;99582.13;7308553;19;129808;-67
2023/01/04 11:53:36;;;;;;;38.05;3.53;;;;;;;22.99;57.62;99582.22;7309919;19;128814;-67
2023/01/04 11:56:20;;;;;;;24.15;2.30;;;;;;;23.02;57.17;99568.00;7306086;19;129799;-68
2023/01/04 11:59:08;;;;;;;24.73;2.13;;;;;;;23.12;57.35;99553.00;7311318;19;129524;-66
2023/01/04 12:01:43;;;;;;;23.90;2.35;;;;;;;23.10;57.21;99536.59;7308850;19;129652;-67
2023/01/04 12:04:15;;;;;;;26.13;2.55;;;;;;;23.30;56.53;99553.03;7311263;19;128833;-67
2023/01/04 12:06:58;;;;;;;6.95;0.85;;;;;;;23.35;56.56;99548.16;7308308;19;129283;-67
2023/01/04 12:09:23;;;;;;;20.35;2.13;;;;;;;23.27;56.97;99541.00;7310556;19;129350;-67
2023/01/04 12:11:52;;;;;;;23.43;2.17;;;;;;;23.20;56.40;99539.97;7308024;19;129081;-65
2023/01/04 12:14:23;;;;;;;20.73;1.83;;;;;;;23.07;57.23;99540.31;7310443;19;129115;-65
2023/01/04 12:17:10;;;;;;;18.25;1.70;;;;;;;23.07;57.65;99550.00;7307388;19;131473;-65